Time;durP1;ratioP1;P1;durP2;ratioP2;P2;SDS_P1;SDS_P2;PMS_P1;PMS_P2;Temp;Humidity;BMP_temperature;BMP_pressure;BME280_temperature;BME280_humidity;BME280_pressure;Samples;Min_cycle;Max_cycle;Signal;HPM_P1;HPM_P2
2021/01/29 00:00:19;;;;;;;8.17;3.40;;;-1.90;99.90;;;;;;5055085;28;20245;-64
2021/01/29 00:02:46;;;;;;;6.53;3.33;;;-2.00;99.90;;;;;;5054649;28;20222;-64
2021/01/29 00:05:13;;;;;;;7.03;3.90;;;-2.00;99.90;;;;;;5055161;28;20274;-64
2021/01/29 00:07:41;;;;;;;7.23;4.23;;;-2.00;99.90;;;;;;5054403;28;20672;-64
2021/01/29 00:10:09;;;;;;;6.17;3.90;;;-2.00;99.90;;;;;;5054998;28;20277;-63
2021/01/29 00:12:36;;;;;;;9.07;3.93;;;-2.00;99.90;;;;;;5054293;28;20304;-63
2021/01/29 00:15:04;;;;;;;8.47;3.73;;;-2.00;99.90;;;;;;5054002;28;20216;-62
2021/01/29 00:17:31;;;;;;;9.63;4.10;;;-2.00;99.90;;;;;;5054021;28;20243;-63
2021/01/29 00:19:58;;;;;;;5.77;3.30;;;-2.00;99.90;;;;;;5054640;28;20199;-63
2021/01/29 00:22:24;;;;;;;6.63;3.73;;;-2.10;99.90;;;;;;5054516;28;20619;-63
2021/01/29 00:24:51;;;;;;;5.50;3.70;;;-2.10;99.90;;;;;;5054417;28;20594;-64
2021/01/29 00:27:17;;;;;;;6.90;3.30;;;-2.20;99.90;;;;;;5053937;28;20678;-63
2021/01/29 00:29:44;;;;;;;7.23;3.80;;;-2.20;99.90;;;;;;5053658;28;20649;-63
2021/01/29 00:32:10;;;;;;;5.03;3.40;;;-2.20;99.90;;;;;;5054623;28;20555;-62
2021/01/29 00:34:37;;;;;;;5.40;3.53;;;-2.20;99.90;;;;;;5054087;28;20271;-62
2021/01/29 00:37:04;;;;;;;7.20;3.60;;;-2.30;99.90;;;;;;5054485;28;20274;-64
2021/01/29 00:39:30;;;;;;;5.87;3.87;;;-2.20;99.90;;;;;;5054465;28;20238;-63
2021/01/29 00:41:57;;;;;;;5.87;3.37;;;-2.20;99.90;;;;;;5051945;28;20649;-63
2021/01/29 00:44:23;;;;;;;5.87;3.80;;;-2.20;99.90;;;;;;5053512;28;20274;-64
2021/01/29 00:46:50;;;;;;;5.87;3.10;;;-2.30;99.90;;;;;;5053407;28;20261;-62
2021/01/29 00:49:16;;;;;;;7.67;3.47;;;-2.20;99.90;;;;;;5053703;28;20230;-62
2021/01/29 00:51:43;;;;;;;5.83;3.80;;;-2.20;99.90;;;;;;5053945;28;20241;-64
2021/01/29 00:54:10;;;;;;;7.07;3.43;;;-2.20;99.90;;;;;;5053165;28;20226;-62
2021/01/29 00:56:36;;;;;;;3.93;2.87;;;-2.30;99.90;;;;;;5053705;28;20293;-62
2021/01/29 00:59:03;;;;;;;5.13;3.50;;;-2.20;99.90;;;;;;5053353;28;20621;-62
2021/01/29 01:01:29;;;;;;;5.77;3.60;;;-2.10;99.90;;;;;;5054128;28;20223;-63
2021/01/29 01:03:56;;;;;;;5.17;3.20;;;-2.20;99.90;;;;;;5053109;28;20690;-63
2021/01/29 01:06:22;;;;;;;6.93;3.47;;;-2.20;99.90;;;;;;5053150;28;20246;-63
2021/01/29 01:08:49;;;;;;;5.40;3.27;;;-2.20;99.90;;;;;;5053483;28;20219;-63
2021/01/29 01:11:16;;;;;;;5.63;3.47;;;-2.20;99.90;;;;;;5053807;28;20282;-63
2021/01/29 01:13:43;;;;;;;5.67;3.70;;;-2.30;99.90;;;;;;5052956;28;20681;-63
2021/01/29 01:16:10;;;;;;;7.70;3.70;;;-2.40;99.90;;;;;;5053149;28;20187;-63
2021/01/29 01:18:36;;;;;;;4.93;3.67;;;-2.50;99.90;;;;;;5053934;28;20246;-62
2021/01/29 01:21:04;;;;;;;5.63;3.80;;;-2.60;99.90;;;;;;5053301;28;20206;-64
2021/01/29 01:23:30;;;;;;;5.03;3.30;;;-2.70;99.90;;;;;;5053077;28;20550;-63
2021/01/29 01:25:57;;;;;;;5.47;3.47;;;-2.70;99.90;;;;;;5053345;28;20235;-63
2021/01/29 01:28:24;;;;;;;6.40;4.50;;;-2.80;99.90;;;;;;5053308;28;20282;-62
2021/01/29 01:30:50;;;;;;;5.93;4.10;;;-2.80;99.90;;;;;;5053073;28;20200;-63
2021/01/29 01:33:17;;;;;;;6.43;3.90;;;-2.90;99.90;;;;;;5052858;28;20293;-63
2021/01/29 01:35:43;;;;;;;8.27;4.53;;;-2.90;99.90;;;;;;5052966;28;20214;-63
2021/01/29 01:38:10;;;;;;;8.20;4.20;;;-2.90;99.90;;;;;;5033326;28;20282;-63
2021/01/29 01:40:39;;;;;;;6.20;4.00;;;-3.00;99.90;;;;;;5033290;28;20298;-62
2021/01/29 01:43:06;;;;;;;7.33;4.37;;;-3.00;99.90;;;;;;5035241;28;20722;-64
2021/01/29 01:45:55;;;;;;;7.03;4.37;;;-3.00;99.90;;;;;;5053131;28;20584;-63
2021/01/29 01:48:43;;;;;;;8.37;4.83;;;-3.10;99.90;;;;;;5053369;28;20219;-63
2021/01/29 01:51:15;;;;;;;6.93;4.47;;;-3.10;99.90;;;;;;5052739;28;20194;-63
2021/01/29 01:53:47;;;;;;;7.27;4.13;;;-3.20;99.90;;;;;;5052498;28;20278;-63
2021/01/29 01:56:18;;;;;;;7.77;4.47;;;-3.20;99.90;;;;;;5052833;28;20195;-65
2021/01/29 01:58:50;;;;;;;6.90;4.87;;;-3.10;99.90;;;;;;5052751;28;20176;-62
2021/01/29 02:01:19;;;;;;;7.07;4.60;;;-3.10;99.90;;;;;;5052943;28;20184;-62
2021/01/29 02:03:46;;;;;;;7.10;4.47;;;-3.10;99.90;;;;;;5052006;28;20601;-64
2021/01/29 02:06:14;;;;;;;5.73;4.00;;;-3.20;99.90;;;;;;5052666;28;20277;-62
2021/01/29 02:08:42;;;;;;;8.00;4.37;;;-3.20;99.90;;;;;;5052460;28;20253;-64
2021/01/29 02:11:11;;;;;;;8.27;4.40;;;-3.10;99.90;;;;;;5052245;28;20207;-65
2021/01/29 02:13:37;;;;;;;7.73;4.77;;;-3.20;99.90;;;;;;5052620;28;20196;-64
2021/01/29 02:16:13;;;;;;;8.10;4.47;;;-3.20;99.90;;;;;;5051582;28;20590;-63
2021/01/29 02:18:57;;;;;;;6.13;4.40;;;-3.20;99.90;;;;;;5032727;28;20188;-63
2021/01/29 02:22:02;;;;;;;6.50;4.33;;;-3.20;99.90;;;;;;5035857;28;20645;-63
2021/01/29 02:25:03;;;;;;;8.93;4.50;;;-3.20;99.90;;;;;;5015449;28;20214;-61
2021/01/29 02:27:48;;;;;;;7.50;4.50;;;-3.20;99.90;;;;;;5052109;28;20193;-62
2021/01/29 02:30:55;;;;;;;8.03;4.53;;;-3.10;99.90;;;;;;5052088;28;20238;-63
2021/01/29 02:33:57;;;;;;;8.67;4.43;;;-3.20;99.90;;;;;;5051693;28;20321;-62
2021/01/29 02:37:11;;;;;;;7.93;4.47;;;-3.20;99.90;;;;;;5051972;28;20285;-63
2021/01/29 02:39:55;;;;;;;5.93;4.20;;;-3.10;99.90;;;;;;5051785;28;20281;-64
2021/01/29 02:42:54;;;;;;;7.23;4.33;;;-3.20;99.90;;;;;;5051996;28;20183;-62
2021/01/29 02:45:28;;;;;;;7.40;4.10;;;-3.20;99.90;;;;;;5032027;28;20239;-62
2021/01/29 02:48:02;;;;;;;7.70;4.37;;;-3.20;99.90;;;;;;5037648;28;20211;-63
2021/01/29 02:50:39;;;;;;;7.10;4.40;;;-3.20;99.90;;;;;;5051599;28;20255;-63
2021/01/29 02:53:15;;;;;;;3.83;2.13;;;-3.40;99.90;;;;;;5051493;28;20547;-63
2021/01/29 02:55:52;;;;;;;7.13;4.17;;;-3.30;99.90;;;;;;5051498;28;20565;-62
2021/01/29 02:58:28;;;;;;;5.07;3.93;;;-3.30;99.90;;;;;;5031580;28;20216;-62
2021/01/29 03:01:00;;;;;;;9.43;4.37;;;-3.30;99.90;;;;;;5043699;28;20278;-63
2021/01/29 03:03:34;;;;;;;6.67;3.90;;;-3.30;99.90;;;;;;5051269;28;20587;-64
2021/01/29 03:06:05;;;;;;;7.03;3.97;;;-3.40;99.90;;;;;;5051305;28;20235;-63
2021/01/29 03:08:36;;;;;;;6.43;4.23;;;-3.30;99.90;;;;;;5051734;28;20274;-62
2021/01/29 03:11:08;;;;;;;7.43;4.67;;;-3.40;99.90;;;;;;5051673;28;20227;-63
2021/01/29 03:13:40;;;;;;;6.57;4.13;;;-3.50;99.90;;;;;;5051675;28;20188;-63
2021/01/29 03:16:14;;;;;;;8.50;4.53;;;-3.50;99.90;;;;;;5051206;28;20226;-62
2021/01/29 03:18:48;;;;;;;7.27;4.17;;;-3.60;99.90;;;;;;5051164;28;20242;-62
2021/01/29 03:21:18;;;;;;;7.57;4.10;;;-3.70;99.90;;;;;;5051178;28;20214;-63
2021/01/29 03:23:51;;;;;;;7.43;4.27;;;-3.70;99.90;;;;;;5051981;28;20310;-62
2021/01/29 03:26:21;;;;;;;8.77;4.77;;;-3.70;99.90;;;;;;5051506;28;20214;-63
2021/01/29 03:28:53;;;;;;;8.27;4.87;;;-3.80;99.90;;;;;;5051232;28;20211;-64
2021/01/29 03:31:22;;;;;;;8.27;4.63;;;-3.80;99.90;;;;;;5051474;28;20184;-63
2021/01/29 03:33:59;;;;;;;8.27;4.80;;;-3.90;99.90;;;;;;5050802;28;20290;-63
2021/01/29 03:36:29;;;;;;;7.83;4.60;;;-4.00;99.90;;;;;;5051026;28;20616;-64
2021/01/29 03:39:01;;;;;;;9.47;4.67;;;-3.90;99.90;;;;;;5051538;28;20266;-64
2021/01/29 03:41:32;;;;;;;7.50;3.97;;;-4.00;99.90;;;;;;5050758;28;20315;-62
2021/01/29 03:44:04;;;;;;;10.63;5.00;;;-3.90;99.90;;;;;;5051322;28;20248;-64
2021/01/29 03:46:37;;;;;;;11.60;5.33;;;-3.90;99.90;;;;;;5050932;28;20626;-63
2021/01/29 03:49:16;;;;;;;7.90;4.17;;;-3.80;99.90;;;;;;5051041;28;20222;-62
2021/01/29 03:51:54;;;;;;;8.70;4.90;;;-3.80;99.90;;;;;;5050970;28;20184;-62
2021/01/29 03:54:28;;;;;;;10.63;5.43;;;-3.80;99.90;;;;;;5051078;28;20276;-63
2021/01/29 03:57:03;;;;;;;8.53;4.93;;;-3.90;99.90;;;;;;5050523;28;20293;-62
2021/01/29 03:59:38;;;;;;;9.10;4.93;;;-3.80;99.90;;;;;;5051139;28;20194;-63
2021/01/29 04:02:13;;;;;;;10.53;4.77;;;-3.80;99.90;;;;;;5050805;28;20267;-63
2021/01/29 04:04:49;;;;;;;11.80;5.50;;;-3.70;99.90;;;;;;5050516;28;20194;-63
2021/01/29 04:07:20;;;;;;;11.40;5.50;;;-3.70;99.90;;;;;;5051089;28;20282;-62
2021/01/29 04:09:54;;;;;;;9.90;5.63;;;-3.80;99.90;;;;;;5050285;28;20222;-64
2021/01/29 04:12:29;;;;;;;8.70;4.83;;;-3.80;99.90;;;;;;5050872;28;20277;-64
2021/01/29 04:15:04;;;;;;;11.07;5.77;;;-3.70;99.90;;;;;;5050865;28;20188;-63
2021/01/29 04:17:35;;;;;;;9.70;5.50;;;-3.70;99.90;;;;;;5054034;28;20199;-63
2021/01/29 04:20:11;;;;;;;9.60;5.43;;;-3.70;99.90;;;;;;5054295;28;20180;-62
2021/01/29 04:22:41;;;;;;;10.77;5.90;;;-3.70;99.90;;;;;;5054384;28;20649;-62
2021/01/29 04:25:14;;;;;;;10.40;6.30;;;-3.70;99.90;;;;;;5053929;28;20314;-63
2021/01/29 04:27:46;;;;;;;11.00;6.00;;;-3.80;99.90;;;;;;5054197;28;20543;-63
2021/01/29 04:30:18;;;;;;;9.93;5.47;;;-3.80;99.90;;;;;;5053747;28;20266;-64
2021/01/29 04:32:49;;;;;;;10.90;5.57;;;-3.80;99.90;;;;;;5054451;28;20266;-61
2021/01/29 04:35:19;;;;;;;10.67;6.20;;;-3.80;99.90;;;;;;5054652;28;20221;-63
2021/01/29 04:37:55;;;;;;;10.60;5.93;;;-3.80;99.90;;;;;;5053811;28;20225;-64
2021/01/29 04:40:28;;;;;;;9.63;4.83;;;-3.80;99.90;;;;;;5054282;28;20222;-63
2021/01/29 04:43:19;;;;;;;12.60;6.50;;;-3.90;99.90;;;;;;5053611;28;20613;-62
2021/01/29 04:46:00;;;;;;;12.63;5.90;;;-3.80;99.90;;;;;;5034641;28;20188;-63
2021/01/29 04:48:37;;;;;;;12.73;5.30;;;-3.90;99.90;;;;;;5054113;28;20268;-63
2021/01/29 04:51:29;;;;;;;11.70;6.40;;;-3.90;99.90;;;;;;5054268;28;20195;-63
2021/01/29 04:54:29;;;;;;;13.87;6.80;;;-3.90;99.90;;;;;;5034115;28;20608;-63
2021/01/29 04:57:25;;;;;;;14.23;6.87;;;-3.90;99.90;;;;;;5046816;28;20826;-64
2021/01/29 05:00:37;;;;;;;12.20;6.33;;;-3.80;99.90;;;;;;5053911;28;20621;-63
2021/01/29 05:03:23;;;;;;;10.97;5.90;;;-3.80;99.90;;;;;;5053419;28;20223;-64
2021/01/29 05:06:17;;;;;;;14.20;6.17;;;-3.70;99.90;;;;;;5053391;28;20262;-63
2021/01/29 05:09:08;;;;;;;14.30;6.77;;;-3.60;99.90;;;;;;5054076;28;20191;-63
2021/01/29 05:12:00;;;;;;;10.77;6.00;;;-3.60;99.90;;;;;;5033688;28;20547;-64
2021/01/29 05:15:03;;;;;;;10.50;5.87;;;-3.60;99.90;;;;;;5033629;28;20207;-64
2021/01/29 05:17:52;;;;;;;6.50;3.77;;;-3.60;99.90;;;;;;5033856;28;20220;-63
2021/01/29 05:20:37;;;;;;;10.93;6.00;;;-3.50;99.90;;;;;;5043644;28;20179;-62
2021/01/29 05:23:14;;;;;;;9.70;6.17;;;-3.40;99.90;;;;;;5053515;28;20247;-62
2021/01/29 05:26:12;;;;;;;10.97;5.83;;;-3.40;99.90;;;;;;5053075;28;20671;-64
2021/01/29 05:29:05;;;;;;;10.63;5.90;;;-3.50;99.90;;;;;;5027799;28;20206;-63
2021/01/29 05:31:54;;;;;;;11.97;5.60;;;-3.40;99.90;;;;;;5053508;28;20271;-63
2021/01/29 05:34:51;;;;;;;10.20;4.90;;;-3.40;99.90;;;;;;5053551;28;20253;-63
2021/01/29 05:37:43;;;;;;;11.30;5.20;;;-3.30;99.90;;;;;;5051459;28;20655;-63
2021/01/29 05:40:26;;;;;;;11.10;5.57;;;-3.30;99.90;;;;;;5053288;28;20270;-63
2021/01/29 05:43:08;;;;;;;10.43;5.30;;;-3.30;99.90;;;;;;5053021;28;20214;-63
2021/01/29 05:45:53;;;;;;;12.13;5.80;;;-3.30;99.90;;;;;;5052224;28;20230;-62
2021/01/29 05:48:50;;;;;;;11.13;5.77;;;-3.30;99.90;;;;;;5053423;28;20219;-63
2021/01/29 05:51:29;;;;;;;9.67;5.33;;;-3.30;99.90;;;;;;5054017;28;20184;-62
2021/01/29 05:54:26;;;;;;;8.30;5.00;;;-3.20;99.90;;;;;;5053546;28;20183;-63
2021/01/29 05:57:32;;;;;;;13.33;6.37;;;-3.20;99.90;;;;;;5043054;28;20245;-63
2021/01/29 06:00:11;;;;;;;9.83;5.40;;;-3.20;99.90;;;;;;5048668;28;20198;-62
2021/01/29 06:03:09;;;;;;;12.20;5.87;;;-3.20;99.90;;;;;;5052955;28;20187;-62
2021/01/29 06:06:03;;;;;;;13.70;6.43;;;-3.20;99.90;;;;;;5034570;28;20355;-64
2021/01/29 06:08:50;;;;;;;12.07;5.80;;;-3.10;99.90;;;;;;5052970;28;20278;-64
2021/01/29 06:11:33;;;;;;;12.87;6.37;;;-3.10;99.90;;;;;;5052907;28;20179;-64
2021/01/29 06:14:40;;;;;;;12.93;5.53;;;-3.00;99.90;;;;;;5052164;28;20282;-63
2021/01/29 06:17:36;;;;;;;8.67;4.97;;;-3.00;99.90;;;;;;5011217;28;20215;-63
2021/01/29 06:20:35;;;;;;;15.57;6.67;;;-3.00;99.90;;;;;;5032286;28;20220;-63
2021/01/29 06:23:45;;;;;;;14.03;6.33;;;-3.00;99.90;;;;;;5032250;28;20275;-64
2021/01/29 06:26:24;;;;;;;12.60;5.90;;;-3.00;99.90;;;;;;4990980;28;20210;-64
2021/01/29 06:29:20;;;;;;;15.50;7.07;;;-2.90;99.90;;;;;;4990859;28;20213;-63
2021/01/29 06:32:38;;;;;;;11.27;6.43;;;-2.90;99.90;;;;;;5016806;28;20200;-62
2021/01/29 06:35:24;;;;;;;10.50;5.60;;;-2.90;99.90;;;;;;5032385;28;20227;-64
2021/01/29 06:38:02;;;;;;;12.37;6.07;;;-2.90;99.90;;;;;;5032613;28;20295;-64
2021/01/29 06:40:34;;;;;;;14.87;6.17;;;-2.90;99.90;;;;;;5042147;28;20218;-63
2021/01/29 06:43:50;;;;;;;8.27;4.07;;;-2.90;99.90;;;;;;5051325;28;20489;-62
2021/01/29 06:46:30;;;;;;;13.00;5.97;;;-2.90;99.90;;;;;;4970932;28;20515;-62
2021/01/29 06:49:13;;;;;;;11.77;6.20;;;-2.80;99.90;;;;;;4971026;28;20232;-63
2021/01/29 06:52:01;;;;;;;12.40;6.97;;;-2.90;99.90;;;;;;5017118;28;20196;-63
2021/01/29 06:54:50;;;;;;;11.87;6.50;;;-2.90;99.90;;;;;;5047597;28;20188;-65
2021/01/29 06:57:31;;;;;;;13.00;7.10;;;-2.90;99.90;;;;;;5051518;28;20264;-63
2021/01/29 07:00:24;;;;;;;12.83;6.37;;;-3.00;99.90;;;;;;5051356;28;20183;-63
2021/01/29 07:03:24;;;;;;;12.17;6.43;;;-2.90;99.90;;;;;;5051154;28;20589;-65
2021/01/29 07:06:04;;;;;;;14.93;6.73;;;-2.90;99.90;;;;;;5031911;28;20263;-63
2021/01/29 07:08:45;;;;;;;14.43;5.60;;;-2.80;99.90;;;;;;5040089;28;20203;-64
2021/01/29 07:11:31;;;;;;;16.83;7.00;;;-2.80;99.90;;;;;;5051735;28;20257;-62
2021/01/29 07:14:22;;;;;;;14.33;6.80;;;-2.80;99.90;;;;;;5050043;28;20223;-63
2021/01/29 07:17:05;;;;;;;11.13;5.77;;;-2.80;99.90;;;;;;5051734;28;20192;-64
2021/01/29 07:20:03;;;;;;;10.07;5.50;;;-2.80;99.90;;;;;;5051654;28;20226;-64
2021/01/29 07:23:05;;;;;;;10.00;5.63;;;-2.80;99.90;;;;;;5047545;28;20236;-64
2021/01/29 07:25:39;;;;;;;10.70;5.17;;;-2.90;99.90;;;;;;5051991;28;20518;-64
2021/01/29 07:28:28;;;;;;;9.93;5.03;;;-2.90;99.90;;;;;;5051516;28;20195;-63
2021/01/29 07:31:18;;;;;;;8.97;4.93;;;-2.80;99.90;;;;;;5051425;28;20188;-63
2021/01/29 07:33:54;;;;;;;10.47;5.07;;;-2.80;99.90;;;;;;5048126;28;20285;-62
2021/01/29 07:37:02;;;;;;;16.10;6.47;;;-2.80;99.90;;;;;;5051858;28;20183;-64
2021/01/29 07:39:44;;;;;;;11.27;5.40;;;-2.80;99.90;;;;;;5046346;28;20191;-62
2021/01/29 07:42:46;;;;;;;11.67;5.63;;;-2.80;99.90;;;;;;5050219;28;20234;-63
2021/01/29 07:45:30;;;;;;;10.57;5.90;;;-2.80;99.90;;;;;;5031736;28;20192;-63
2021/01/29 07:48:17;;;;;;;9.40;5.00;;;-2.80;99.90;;;;;;5031103;28;20272;-62
2021/01/29 07:50:46;;;;;;;14.03;6.97;;;-2.80;99.90;;;;;;5032495;28;20289;-63
2021/01/29 07:53:21;;;;;;;6.80;4.03;;;-2.70;99.90;;;;;;5035431;28;20235;-63
2021/01/29 07:56:04;;;;;;;9.93;5.80;;;-2.70;99.90;;;;;;5034990;28;20271;-64
2021/01/29 07:58:40;;;;;;;9.13;5.00;;;-2.80;99.90;;;;;;5053781;28;20287;-62
2021/01/29 08:01:26;;;;;;;10.53;4.87;;;-2.80;99.90;;;;;;5055203;28;20610;-64
2021/01/29 08:04:14;;;;;;;13.57;7.30;;;-2.80;99.90;;;;;;5055047;28;20219;-64
2021/01/29 08:06:49;;;;;;;7.03;4.63;;;-2.70;99.90;;;;;;5054144;28;20587;-64
2021/01/29 08:09:22;;;;;;;10.37;6.30;;;-2.70;99.90;;;;;;5055051;28;20252;-63
2021/01/29 08:11:54;;;;;;;11.87;5.87;;;-2.70;99.90;;;;;;5055593;28;20191;-63
2021/01/29 08:14:46;;;;;;;14.33;6.33;;;-2.70;99.90;;;;;;5055046;28;20215;-62
2021/01/29 08:17:27;;;;;;;8.23;4.20;;;-2.60;99.90;;;;;;5054620;28;20291;-62
2021/01/29 08:20:07;;;;;;;9.13;5.73;;;-2.70;99.90;;;;;;5054110;28;20619;-64
2021/01/29 08:23:13;;;;;;;10.17;5.63;;;-2.70;99.90;;;;;;5054016;28;20214;-63
2021/01/29 08:26:02;;;;;;;9.63;5.40;;;-2.80;99.90;;;;;;5033617;28;20278;-64
2021/01/29 08:29:04;;;;;;;10.73;5.00;;;-2.80;99.90;;;;;;5054291;28;20194;-63
2021/01/29 08:31:55;;;;;;;11.30;5.50;;;-2.80;99.90;;;;;;5054389;28;20223;-63
2021/01/29 08:34:50;;;;;;;9.43;4.43;;;-2.80;99.90;;;;;;5053533;28;20192;-63
2021/01/29 08:37:31;;;;;;;13.50;5.30;;;-2.80;99.90;;;;;;5052732;28;20745;-63
2021/01/29 08:40:05;;;;;;;11.00;5.90;;;-2.80;99.90;;;;;;5054220;28;20215;-64
2021/01/29 08:42:47;;;;;;;10.77;5.60;;;-2.70;99.90;;;;;;5054135;28;20271;-63
2021/01/29 08:45:43;;;;;;;3.77;2.47;;;-2.70;99.90;;;;;;5053609;28;20270;-63
2021/01/29 08:48:19;;;;;;;12.30;5.70;;;-2.80;99.90;;;;;;5051905;28;20607;-63
2021/01/29 08:50:55;;;;;;;6.53;4.10;;;-2.70;99.90;;;;;;5050943;28;20700;-63
2021/01/29 08:54:03;;;;;;;12.33;5.33;;;-2.70;99.90;;;;;;5053290;28;20183;-63
2021/01/29 08:56:42;;;;;;;8.33;4.50;;;-2.80;99.90;;;;;;5049802;28;20238;-63
2021/01/29 08:59:11;;;;;;;8.63;5.17;;;-2.80;99.90;;;;;;5053663;28;20625;-63
2021/01/29 09:01:42;;;;;;;9.63;4.87;;;-2.80;99.90;;;;;;5052980;28;20240;-65
2021/01/29 09:04:20;;;;;;;11.20;5.23;;;-2.80;99.90;;;;;;5033156;28;20337;-65
2021/01/29 09:06:49;;;;;;;11.07;6.13;;;-2.70;99.90;;;;;;5041128;28;20309;-64
2021/01/29 09:09:19;;;;;;;12.67;5.57;;;-2.70;99.90;;;;;;5051805;28;20219;-65
2021/01/29 09:11:49;;;;;;;6.57;3.80;;;-2.70;99.90;;;;;;5053178;28;20628;-63
2021/01/29 09:14:22;;;;;;;6.30;3.97;;;-2.70;99.90;;;;;;5053532;28;20273;-64
2021/01/29 09:16:51;;;;;;;7.57;4.67;;;-2.80;99.90;;;;;;5052796;28;20211;-63
2021/01/29 09:19:19;;;;;;;6.80;4.10;;;-2.70;99.90;;;;;;5052878;28;20746;-63
2021/01/29 09:21:56;;;;;;;7.97;4.00;;;-2.80;99.90;;;;;;5052907;28;20331;-64
2021/01/29 09:24:35;;;;;;;9.03;5.00;;;-2.70;99.90;;;;;;5051032;28;20227;-64
2021/01/29 09:27:25;;;;;;;9.07;4.03;;;-2.70;99.90;;;;;;5049888;28;20215;-63
2021/01/29 09:29:55;;;;;;;10.17;5.03;;;-2.60;99.90;;;;;;5053456;28;20184;-65
2021/01/29 09:32:56;;;;;;;6.67;3.67;;;-2.50;99.90;;;;;;5053578;28;20231;-65
2021/01/29 09:35:31;;;;;;;9.90;5.43;;;-2.50;99.90;;;;;;5050818;28;20537;-63
2021/01/29 09:38:02;;;;;;;5.47;3.13;;;-2.60;99.90;;;;;;5052094;28;20199;-64
2021/01/29 09:40:33;;;;;;;11.53;5.40;;;-2.50;99.90;;;;;;5051763;28;20611;-64
2021/01/29 09:43:14;;;;;;;10.03;5.37;;;-2.60;99.90;;;;;;5052329;28;20245;-64
2021/01/29 09:45:43;;;;;;;9.37;5.23;;;-2.70;99.90;;;;;;5033521;28;20653;-65
2021/01/29 09:48:13;;;;;;;4.83;3.50;;;-2.70;99.90;;;;;;5038751;28;20219;-67
2021/01/29 09:50:40;;;;;;;9.50;5.37;;;-2.80;99.90;;;;;;5055999;28;20184;-63
2021/01/29 09:53:28;;;;;;;3.70;2.77;;;-2.70;99.90;;;;;;5052328;28;20594;-63
2021/01/29 09:55:59;;;;;;;7.37;4.03;;;-2.70;99.90;;;;;;5052367;28;20187;-64
2021/01/29 09:59:00;;;;;;;7.67;4.17;;;-2.70;99.90;;;;;;5052531;28;20290;-65
2021/01/29 10:01:36;;;;;;;6.77;3.50;;;-2.60;99.90;;;;;;5042001;28;20203;-65
2021/01/29 10:04:09;;;;;;;4.03;3.17;;;-2.70;99.90;;;;;;5050657;28;20215;-66
2021/01/29 10:06:40;;;;;;;8.60;3.87;;;-2.70;99.90;;;;;;5045748;28;20227;-65
2021/01/29 10:09:14;;;;;;;3.50;2.60;;;-2.70;99.90;;;;;;5049324;28;20207;-66
2021/01/29 10:11:46;;;;;;;7.57;4.30;;;-2.70;99.90;;;;;;5051324;28;20608;-66
2021/01/29 10:14:16;;;;;;;11.27;5.47;;;-2.70;99.90;;;;;;5052154;28;20626;-64
2021/01/29 10:16:52;;;;;;;9.23;5.03;;;-2.70;99.90;;;;;;5051861;28;20211;-64
2021/01/29 10:19:28;;;;;;;8.77;4.83;;;-2.50;99.90;;;;;;5051959;28;20626;-65
2021/01/29 10:22:33;;;;;;;9.77;5.40;;;-2.50;99.90;;;;;;5052168;28;20187;-64
2021/01/29 10:25:10;;;;;;;10.13;5.50;;;-2.60;99.90;;;;;;5052443;28;20219;-65
2021/01/29 10:27:43;;;;;;;13.07;5.67;;;-2.60;99.90;;;;;;5051592;28;20237;-64
2021/01/29 10:30:17;;;;;;;10.43;5.30;;;-2.50;99.90;;;;;;5051698;28;20195;-64
2021/01/29 10:32:57;;;;;;;11.33;5.50;;;-2.50;99.90;;;;;;5052399;28;20223;-64
2021/01/29 10:35:27;;;;;;;6.17;3.83;;;-2.40;99.90;;;;;;5052535;28;20199;-63
2021/01/29 10:38:02;;;;;;;7.70;4.93;;;-2.30;99.90;;;;;;5052297;28;20265;-65
2021/01/29 10:40:34;;;;;;;4.10;2.80;;;-2.50;99.90;;;;;;5052284;28;20191;-65
2021/01/29 10:43:07;;;;;;;6.13;4.03;;;-2.60;99.90;;;;;;5046580;28;20234;-65
2021/01/29 10:45:45;;;;;;;8.13;4.23;;;-2.70;99.90;;;;;;5031952;28;20238;-64
2021/01/29 10:48:31;;;;;;;8.13;4.77;;;-2.60;99.90;;;;;;5032454;28;20620;-64
2021/01/29 10:51:04;;;;;;;8.03;4.33;;;-2.80;99.90;;;;;;5032516;28;20211;-65
2021/01/29 10:53:32;;;;;;;8.40;5.17;;;-2.70;99.90;;;;;;5032006;28;20216;-66
2021/01/29 10:56:01;;;;;;;12.83;4.60;;;-2.70;99.90;;;;;;5032140;28;20271;-65
2021/01/29 10:58:47;;;;;;;8.20;4.27;;;-2.80;99.90;;;;;;5031778;28;20306;-62
2021/01/29 11:01:28;;;;;;;9.23;5.40;;;-2.90;99.90;;;;;;5031713;28;20322;-64
2021/01/29 11:04:03;;;;;;;9.23;5.37;;;-2.80;99.90;;;;;;5031898;28;20188;-66
2021/01/29 11:06:39;;;;;;;10.33;5.10;;;-2.60;99.90;;;;;;5040398;28;20563;-65
2021/01/29 11:09:18;;;;;;;8.70;4.97;;;-2.60;99.90;;;;;;5051797;28;20214;-66
2021/01/29 11:11:49;;;;;;;7.67;5.10;;;-2.60;99.90;;;;;;5051559;28;20195;-65
2021/01/29 11:14:25;;;;;;;10.70;5.63;;;-2.80;99.90;;;;;;5051670;28;20207;-65
2021/01/29 11:17:01;;;;;;;9.10;4.00;;;-2.70;99.90;;;;;;5051655;28;20183;-65
2021/01/29 11:19:35;;;;;;;8.60;5.03;;;-2.60;99.90;;;;;;5051491;28;20227;-64
2021/01/29 11:22:14;;;;;;;7.63;4.87;;;-2.60;99.90;;;;;;5051376;28;20654;-65
2021/01/29 11:24:48;;;;;;;6.67;3.53;;;-2.70;99.90;;;;;;5050379;28;20266;-64
2021/01/29 11:27:20;;;;;;;6.43;3.47;;;-2.80;99.90;;;;;;5050956;28;20218;-64
2021/01/29 11:29:53;;;;;;;6.10;3.17;;;-2.60;99.90;;;;;;5051465;28;20226;-66
2021/01/29 11:32:30;;;;;;;10.10;4.83;;;-2.70;99.90;;;;;;5049953;28;20215;-68
2021/01/29 11:35:20;;;;;;;6.77;4.30;;;-2.80;99.90;;;;;;5035817;28;20184;-65
2021/01/29 11:38:08;;;;;;;12.30;4.93;;;-2.60;99.90;;;;;;5044184;28;20311;-64
2021/01/29 11:40:41;;;;;;;9.37;4.67;;;-2.50;99.90;;;;;;5050754;28;20264;-63
2021/01/29 11:43:15;;;;;;;10.20;5.13;;;-2.60;99.90;;;;;;5043206;28;20207;-65
2021/01/29 11:45:47;;;;;;;6.43;3.90;;;-2.60;99.90;;;;;;5051351;28;20215;-64
2021/01/29 11:48:21;;;;;;;9.67;5.10;;;-2.60;99.90;;;;;;5051287;28;20282;-66
2021/01/29 11:50:54;;;;;;;10.07;5.50;;;-2.60;99.90;;;;;;5049376;28;20264;-65
2021/01/29 11:53:25;;;;;;;9.30;4.80;;;-2.40;99.90;;;;;;5042852;28;20702;-65
2021/01/29 11:55:58;;;;;;;9.73;4.60;;;-2.30;99.90;;;;;;5050243;28;20330;-66
2021/01/29 11:58:36;;;;;;;9.53;5.47;;;-2.60;99.90;;;;;;5051214;28;20254;-66
2021/01/29 12:01:10;;;;;;;5.87;3.73;;;-2.60;99.90;;;;;;5051345;28;20230;-63
2021/01/29 12:03:46;;;;;;;6.40;3.70;;;-2.80;99.90;;;;;;5051183;28;20704;-64
2021/01/29 12:06:18;;;;;;;9.70;4.87;;;-2.70;99.90;;;;;;5048331;28;20623;-64
2021/01/29 12:09:02;;;;;;;8.90;4.60;;;-2.70;99.90;;;;;;5044731;28;20196;-64
2021/01/29 12:11:35;;;;;;;10.27;5.20;;;-2.70;99.90;;;;;;5050092;28;20219;-66
2021/01/29 12:14:18;;;;;;;10.10;5.40;;;-2.70;99.90;;;;;;5050971;28;20553;-66
2021/01/29 12:16:46;;;;;;;8.03;4.90;;;-2.70;99.90;;;;;;5040340;28;20595;-67
2021/01/29 12:19:27;;;;;;;7.30;3.97;;;-2.60;99.90;;;;;;5040572;28;20265;-67
2021/01/29 12:22:04;;;;;;;8.83;4.67;;;-2.50;99.90;;;;;;5050681;28;20222;-67
2021/01/29 12:24:38;;;;;;;8.97;4.90;;;-2.60;99.90;;;;;;5050269;28;20188;-69
2021/01/29 12:27:09;;;;;;;11.00;4.80;;;-2.60;99.90;;;;;;5050540;28;20234;-63
2021/01/29 12:29:47;;;;;;;4.67;2.50;;;-2.50;99.90;;;;;;5048564;28;20660;-64
2021/01/29 12:32:38;;;;;;;9.13;5.43;;;-2.50;99.90;;;;;;5047312;28;20191;-63
2021/01/29 12:35:09;;;;;;;3.87;2.73;;;-2.60;99.90;;;;;;5050909;28;20199;-62
2021/01/29 12:37:38;;;;;;;8.13;4.27;;;-2.70;99.90;;;;;;5052940;28;20242;-64
2021/01/29 12:40:08;;;;;;;9.83;4.63;;;-2.80;99.90;;;;;;5054151;28;20219;-67
2021/01/29 12:42:56;;;;;;;12.07;5.50;;;-2.90;99.90;;;;;;5043483;28;20232;-65
2021/01/29 12:45:29;;;;;;;7.53;3.70;;;-2.90;99.90;;;;;;5053547;28;20219;-65
2021/01/29 12:48:08;;;;;;;8.93;4.90;;;-2.90;99.90;;;;;;5053567;28;20604;-66
2021/01/29 12:50:56;;;;;;;8.20;5.17;;;-3.00;99.90;;;;;;5053777;28;20246;-66
2021/01/29 12:53:32;;;;;;;8.07;3.93;;;-3.00;99.90;;;;;;5054072;28;20239;-66
2021/01/29 12:56:10;;;;;;;10.67;5.87;;;-3.00;99.90;;;;;;5052859;28;20207;-66
2021/01/29 12:58:39;;;;;;;8.37;4.53;;;-2.90;99.90;;;;;;5034316;28;20303;-64
2021/01/29 13:01:07;;;;;;;8.70;4.77;;;-3.00;99.90;;;;;;5036146;28;20231;-62
2021/01/29 13:03:51;;;;;;;7.43;3.20;;;-3.10;99.90;;;;;;5049914;28;20601;-63
2021/01/29 13:06:38;;;;;;;7.37;4.27;;;-3.10;99.90;;;;;;5052486;28;20247;-65
2021/01/29 13:09:32;;;;;;;6.93;3.67;;;-3.20;99.90;;;;;;5039490;28;20200;-63
2021/01/29 13:12:15;;;;;;;7.27;4.07;;;-3.40;99.90;;;;;;5048298;28;20226;-64
2021/01/29 13:14:55;;;;;;;9.20;4.97;;;-3.50;99.90;;;;;;5052955;28;20223;-63
2021/01/29 13:17:29;;;;;;;7.73;4.73;;;-3.50;99.90;;;;;;5047800;28;20211;-65
2021/01/29 13:20:06;;;;;;;9.13;4.30;;;-3.40;99.90;;;;;;5052815;28;20331;-64
2021/01/29 13:22:43;;;;;;;6.67;4.10;;;-3.40;99.90;;;;;;5053453;28;20222;-65
2021/01/29 13:25:29;;;;;;;7.43;3.47;;;-3.50;99.90;;;;;;5050438;28;20203;-64
2021/01/29 13:28:03;;;;;;;8.57;4.10;;;-3.50;99.90;;;;;;5052024;28;20227;-64
2021/01/29 13:30:33;;;;;;;7.70;4.57;;;-3.50;99.90;;;;;;5053122;28;20701;-63
2021/01/29 13:33:12;;;;;;;7.97;4.50;;;-3.50;99.90;;;;;;5053227;28;20191;-66
2021/01/29 13:35:40;;;;;;;8.43;4.03;;;-3.50;99.90;;;;;;5050937;28;20245;-64
2021/01/29 13:38:16;;;;;;;6.13;3.90;;;-3.40;99.90;;;;;;5050540;28;20225;-63
2021/01/29 13:40:45;;;;;;;8.37;4.60;;;-3.50;99.90;;;;;;5045249;28;20191;-63